createdAt,value
2018-11-22T12:17:22.507Z,5.03
2018-11-22T12:22:42.312Z,5.08
2018-11-22T12:28:04.968Z,5.19
2018-11-22T12:33:28.652Z,5.35
2018-11-22T12:38:47.325Z,5.39
2018-11-22T12:44:06.354Z,5.41
2018-11-22T12:49:24.867Z,5.33
2018-11-22T12:54:43.403Z,5.33
2018-11-22T13:00:01.913Z,5.35
2018-11-22T13:05:20.847Z,5.26
2018-11-22T13:10:39.360Z,5.36
2018-11-22T13:15:57.892Z,5.36
2018-11-22T13:21:16.416Z,5.28
2018-11-22T13:26:34.972Z,5.27
2018-11-22T13:31:53.484Z,5.40
2018-11-22T13:37:11.984Z,5.40
2018-11-22T13:42:30.481Z,5.53
2018-11-22T13:47:50.187Z,5.56
2018-11-22T13:53:09.028Z,5.55
2018-11-22T13:58:27.525Z,5.63
2018-11-22T14:03:45.996Z,5.66
2018-11-22T14:09:05.873Z,5.63
2018-11-22T14:14:24.537Z,5.55
2018-11-22T14:19:43.097Z,5.54
2018-11-22T14:25:01.598Z,5.61
2018-11-22T14:30:22.668Z,5.54
2018-11-22T14:35:41.207Z,5.63
2018-11-22T14:40:59.715Z,5.58
2018-11-22T14:46:18.212Z,5.74
2018-11-22T14:51:39.988Z,5.50
2018-11-22T14:56:58.491Z,5.42
2018-11-22T15:02:17.032Z,5.36
2018-11-22T15:07:35.572Z,5.30
2018-11-22T15:12:54.177Z,5.17
2018-11-22T15:18:12.677Z,5.25
2018-11-22T15:23:31.224Z,5.23
2018-11-22T15:28:49.760Z,5.05
2018-11-22T15:34:08.248Z,4.99
2018-11-22T15:39:26.816Z,4.87
2018-11-22T15:44:45.558Z,4.79
2018-11-22T15:50:04.714Z,4.68
2018-11-22T15:55:24.270Z,5.07
2018-11-22T16:00:42.833Z,4.79
2018-11-22T16:06:01.392Z,4.48
2018-11-22T16:11:19.949Z,4.19
2018-11-22T16:16:38.456Z,3.89
2018-11-22T16:21:56.976Z,3.87
2018-11-22T16:27:15.628Z,3.70
2018-11-22T16:32:34.153Z,3.70
2018-11-22T16:37:52.764Z,3.76
2018-11-22T16:43:11.869Z,3.69
2018-11-22T16:48:30.496Z,3.56
2018-11-22T16:53:49.140Z,3.51
2018-11-22T16:59:07.704Z,3.27
2018-11-22T17:04:26.231Z,3.22
2018-11-22T17:09:44.785Z,3.27
2018-11-22T17:15:03.607Z,3.22
2018-11-22T17:20:23.045Z,3.02
2018-11-22T17:25:41.590Z,2.77
2018-11-22T17:31:00.093Z,2.58
2018-11-22T17:36:18.617Z,2.37
2018-11-22T17:41:37.196Z,2.31
2018-11-22T17:46:55.793Z,2.40
2018-11-22T17:52:14.952Z,2.32
2018-11-22T17:57:33.583Z,2.39
2018-11-22T18:02:53.224Z,2.34
2018-11-22T18:08:11.769Z,2.26
2018-11-22T18:13:30.299Z,2.18
2018-11-22T18:18:48.892Z,2.02
2018-11-22T18:24:07.380Z,2.39
2018-11-22T18:29:25.934Z,2.31
2018-11-22T18:34:44.483Z,2.13
2018-11-22T18:40:03.171Z,2.03
2018-11-22T18:45:27.278Z,2.01
2018-11-22T18:50:47.061Z,1.86
2018-11-22T18:56:05.340Z,1.77
2018-11-22T19:01:23.867Z,1.65
2018-11-22T19:06:42.383Z,1.66
2018-11-22T19:12:01.035Z,1.63
2018-11-22T19:17:19.704Z,1.50
2018-11-22T19:22:38.212Z,1.67
2018-11-22T19:27:57.517Z,1.66
2018-11-22T19:33:17.778Z,1.58
2018-11-22T19:38:36.369Z,1.59
2018-11-22T19:43:54.888Z,1.56
2018-11-22T19:49:13.480Z,1.68
2018-11-22T19:54:32.045Z,1.71
2018-11-22T19:59:50.677Z,1.84
2018-11-22T20:05:10.976Z,1.92
2018-11-22T20:10:34.699Z,1.88
2018-11-22T20:15:53.393Z,1.87
2018-11-22T20:21:11.935Z,1.92
2018-11-22T20:26:30.467Z,1.97
2018-11-22T20:31:49.157Z,2.05
2018-11-22T20:37:07.915Z,2.03
2018-11-22T20:42:26.502Z,2.07
2018-11-22T20:47:46.061Z,2.07
2018-11-22T20:53:04.661Z,2.05
2018-11-22T20:58:23.258Z,2.02
2018-11-22T21:03:41.760Z,1.99
2018-11-22T21:09:00.403Z,1.93
2018-11-22T21:14:18.934Z,1.92
2018-11-22T21:19:37.406Z,1.92
2018-11-22T21:24:55.908Z,1.78
2018-11-22T21:30:17.993Z,1.76
2018-11-22T21:35:36.956Z,1.76
2018-11-22T21:40:55.436Z,1.76
2018-11-22T21:46:14.117Z,1.67
2018-11-22T21:51:39.347Z,1.70
2018-11-22T21:56:51.888Z,1.61
2018-11-22T22:02:10.412Z,1.61
2018-11-22T22:07:28.916Z,1.60
2018-11-22T22:12:47.454Z,1.52
2018-11-22T22:18:07.288Z,1.55
2018-11-22T22:23:25.773Z,1.41
2018-11-22T22:28:44.319Z,1.48
2018-11-22T22:34:02.852Z,1.46
2018-11-22T22:39:21.372Z,1.36
2018-11-22T22:44:39.884Z,1.29
2018-11-22T22:49:58.356Z,1.18
2018-11-22T22:55:16.868Z,1.29
2018-11-22T23:00:41.958Z,1.38
2018-11-22T23:06:00.466Z,1.45
2018-11-22T23:11:19.065Z,1.47
2018-11-22T23:16:37.669Z,1.45
2018-11-22T23:21:56.171Z,1.38
2018-11-22T23:27:14.692Z,1.30
2018-11-22T23:32:33.194Z,1.21
2018-11-22T23:37:52.003Z,1.29
2018-11-22T23:43:10.507Z,1.28
2018-11-22T23:48:29.159Z,1.33
2018-11-22T23:53:47.643Z,1.33
2018-11-22T23:59:06.308Z,1.27
